sensor_id;sensor_type;location;lat;lon;timestamp;P1;durP1;ratioP1;P2;durP2;ratioP2
61590;SDS011;57639;52.410;-1.966;2022-12-07T00:01:03;17.92;;;12.43;;
61590;SDS011;57639;52.410;-1.966;2022-12-07T00:04:11;20.13;;;12.30;;
61590;SDS011;57639;52.410;-1.966;2022-12-07T00:07:18;20.02;;;12.48;;
61590;SDS011;57639;52.410;-1.966;2022-12-07T00:10:27;19.52;;;12.05;;
61590;SDS011;57639;52.410;-1.966;2022-12-07T00:13:33;17.05;;;11.02;;
61590;SDS011;57639;52.410;-1.966;2022-12-07T00:16:40;18.65;;;11.32;;
61590;SDS011;57639;52.410;-1.966;2022-12-07T00:19:46;19.08;;;12.27;;
61590;SDS011;57639;52.410;-1.966;2022-12-07T00:22:52;17.00;;;10.68;;
61590;SDS011;57639;52.410;-1.966;2022-12-07T00:26:05;17.20;;;11.13;;
61590;SDS011;57639;52.410;-1.966;2022-12-07T00:29:14;18.85;;;10.70;;
61590;SDS011;57639;52.410;-1.966;2022-12-07T00:32:22;16.73;;;9.85;;
61590;SDS011;57639;52.410;-1.966;2022-12-07T00:35:28;16.38;;;9.57;;
61590;SDS011;57639;52.410;-1.966;2022-12-07T00:38:35;14.82;;;9.25;;
61590;SDS011;57639;52.410;-1.966;2022-12-07T00:41:45;16.13;;;9.38;;
61590;SDS011;57639;52.410;-1.966;2022-12-07T00:44:51;16.50;;;9.30;;
61590;SDS011;57639;52.410;-1.966;2022-12-07T00:47:55;16.48;;;8.57;;
61590;SDS011;57639;52.410;-1.966;2022-12-07T00:51:02;15.18;;;8.52;;
61590;SDS011;57639;52.410;-1.966;2022-12-07T00:54:06;13.75;;;8.55;;
61590;SDS011;57639;52.410;-1.966;2022-12-07T00:57:15;12.30;;;7.60;;
61590;SDS011;57639;52.410;-1.966;2022-12-07T01:00:21;11.95;;;7.63;;
61590;SDS011;57639;52.410;-1.966;2022-12-07T01:03:27;12.57;;;6.97;;
61590;SDS011;57639;52.410;-1.966;2022-12-07T01:06:34;10.57;;;6.72;;
61590;SDS011;57639;52.410;-1.966;2022-12-07T01:09:40;11.40;;;6.93;;
61590;SDS011;57639;52.410;-1.966;2022-12-07T01:12:49;10.88;;;6.60;;
61590;SDS011;57639;52.410;-1.966;2022-12-07T01:15:56;12.00;;;6.40;;
61590;SDS011;57639;52.410;-1.966;2022-12-07T01:19:04;10.18;;;6.60;;
61590;SDS011;57639;52.410;-1.966;2022-12-07T01:22:10;10.00;;;6.38;;
61590;SDS011;57639;52.410;-1.966;2022-12-07T01:25:16;10.55;;;6.10;;
61590;SDS011;57639;52.410;-1.966;2022-12-07T01:28:25;9.55;;;6.07;;
61590;SDS011;57639;52.410;-1.966;2022-12-07T01:31:32;10.23;;;6.15;;
61590;SDS011;57639;52.410;-1.966;2022-12-07T01:34:38;8.60;;;5.32;;
61590;SDS011;57639;52.410;-1.966;2022-12-07T01:37:44;7.70;;;5.20;;
61590;SDS011;57639;52.410;-1.966;2022-12-07T01:40:54;8.45;;;5.45;;
61590;SDS011;57639;52.410;-1.966;2022-12-07T01:44:13;8.80;;;5.30;;
61590;SDS011;57639;52.410;-1.966;2022-12-07T01:47:24;8.73;;;4.97;;
61590;SDS011;57639;52.410;-1.966;2022-12-07T01:50:31;8.07;;;5.13;;
61590;SDS011;57639;52.410;-1.966;2022-12-07T01:53:35;7.65;;;4.68;;
61590;SDS011;57639;52.410;-1.966;2022-12-07T01:56:45;8.02;;;4.53;;
61590;SDS011;57639;52.410;-1.966;2022-12-07T01:59:56;8.27;;;4.35;;
61590;SDS011;57639;52.410;-1.966;2022-12-07T02:03:04;7.22;;;4.20;;
61590;SDS011;57639;52.410;-1.966;2022-12-07T02:06:13;7.72;;;4.57;;
61590;SDS011;57639;52.410;-1.966;2022-12-07T02:09:24;6.30;;;4.18;;
61590;SDS011;57639;52.410;-1.966;2022-12-07T02:12:31;6.90;;;4.20;;
61590;SDS011;57639;52.410;-1.966;2022-12-07T02:15:53;6.45;;;4.00;;
61590;SDS011;57639;52.410;-1.966;2022-12-07T02:19:27;6.65;;;3.97;;
61590;SDS011;57639;52.410;-1.966;2022-12-07T02:22:59;6.03;;;3.80;;
61590;SDS011;57639;52.410;-1.966;2022-12-07T02:26:23;6.28;;;4.05;;
61590;SDS011;57639;52.410;-1.966;2022-12-07T02:29:53;5.90;;;3.80;;
61590;SDS011;57639;52.410;-1.966;2022-12-07T02:33:06;5.97;;;3.80;;
61590;SDS011;57639;52.410;-1.966;2022-12-07T02:36:17;5.57;;;3.50;;
61590;SDS011;57639;52.410;-1.966;2022-12-07T02:39:28;6.30;;;3.45;;
61590;SDS011;57639;52.410;-1.966;2022-12-07T02:42:43;5.97;;;3.40;;
61590;SDS011;57639;52.410;-1.966;2022-12-07T02:45:54;5.88;;;3.25;;
61590;SDS011;57639;52.410;-1.966;2022-12-07T02:49:03;5.30;;;3.45;;
61590;SDS011;57639;52.410;-1.966;2022-12-07T02:52:10;7.18;;;3.40;;
61590;SDS011;57639;52.410;-1.966;2022-12-07T02:55:17;6.88;;;3.25;;
61590;SDS011;57639;52.410;-1.966;2022-12-07T02:58:31;5.43;;;3.55;;
61590;SDS011;57639;52.410;-1.966;2022-12-07T03:01:51;5.20;;;2.90;;
61590;SDS011;57639;52.410;-1.966;2022-12-07T03:05:13;6.32;;;3.10;;
61590;SDS011;57639;52.410;-1.966;2022-12-07T03:08:30;4.97;;;3.03;;
61590;SDS011;57639;52.410;-1.966;2022-12-07T03:11:45;5.20;;;2.83;;
61590;SDS011;57639;52.410;-1.966;2022-12-07T03:14:53;5.80;;;2.95;;
61590;SDS011;57639;52.410;-1.966;2022-12-07T03:18:08;7.50;;;3.10;;
61590;SDS011;57639;52.410;-1.966;2022-12-07T03:21:17;6.63;;;3.10;;
61590;SDS011;57639;52.410;-1.966;2022-12-07T03:24:28;5.38;;;3.00;;
61590;SDS011;57639;52.410;-1.966;2022-12-07T03:27:37;5.35;;;2.90;;
61590;SDS011;57639;52.410;-1.966;2022-12-07T03:30:47;5.20;;;2.60;;
61590;SDS011;57639;52.410;-1.966;2022-12-07T03:34:01;5.55;;;2.97;;
61590;SDS011;57639;52.410;-1.966;2022-12-07T03:37:12;4.53;;;2.90;;
61590;SDS011;57639;52.410;-1.966;2022-12-07T03:40:26;4.75;;;2.75;;
61590;SDS011;57639;52.410;-1.966;2022-12-07T03:43:37;6.88;;;3.00;;
61590;SDS011;57639;52.410;-1.966;2022-12-07T03:46:47;4.30;;;2.47;;
61590;SDS011;57639;52.410;-1.966;2022-12-07T03:50:00;5.03;;;2.90;;
61590;SDS011;57639;52.410;-1.966;2022-12-07T03:53:12;4.35;;;2.95;;
61590;SDS011;57639;52.410;-1.966;2022-12-07T03:56:23;4.22;;;2.63;;
61590;SDS011;57639;52.410;-1.966;2022-12-07T03:59:28;6.40;;;3.03;;
61590;SDS011;57639;52.410;-1.966;2022-12-07T04:02:35;4.50;;;2.50;;
61590;SDS011;57639;52.410;-1.966;2022-12-07T04:05:42;3.45;;;2.17;;
61590;SDS011;57639;52.410;-1.966;2022-12-07T04:08:49;4.28;;;2.55;;
61590;SDS011;57639;52.410;-1.966;2022-12-07T04:11:55;3.55;;;2.20;;
61590;SDS011;57639;52.410;-1.966;2022-12-07T04:15:01;4.72;;;2.47;;
61590;SDS011;57639;52.410;-1.966;2022-12-07T04:18:07;4.80;;;2.30;;
61590;SDS011;57639;52.410;-1.966;2022-12-07T04:21:17;4.80;;;2.50;;
61590;SDS011;57639;52.410;-1.966;2022-12-07T04:24:23;4.25;;;2.28;;
61590;SDS011;57639;52.410;-1.966;2022-12-07T04:27:29;3.65;;;2.13;;
61590;SDS011;57639;52.410;-1.966;2022-12-07T04:30:35;5.45;;;2.20;;
61590;SDS011;57639;52.410;-1.966;2022-12-07T04:33:41;3.72;;;2.25;;
61590;SDS011;57639;52.410;-1.966;2022-12-07T04:36:50;3.85;;;2.38;;
61590;SDS011;57639;52.410;-1.966;2022-12-07T04:39:56;4.30;;;2.08;;
61590;SDS011;57639;52.410;-1.966;2022-12-07T04:43:02;4.20;;;2.20;;
61590;SDS011;57639;52.410;-1.966;2022-12-07T04:46:08;3.85;;;2.17;;
61590;SDS011;57639;52.410;-1.966;2022-12-07T04:49:14;3.80;;;2.22;;
61590;SDS011;57639;52.410;-1.966;2022-12-07T04:52:21;4.22;;;2.28;;
61590;SDS011;57639;52.410;-1.966;2022-12-07T04:55:27;4.05;;;2.30;;
61590;SDS011;57639;52.410;-1.966;2022-12-07T04:58:33;3.00;;;1.60;;
61590;SDS011;57639;52.410;-1.966;2022-12-07T05:01:39;2.92;;;2.10;;
61590;SDS011;57639;52.410;-1.966;2022-12-07T05:04:45;3.90;;;2.10;;
61590;SDS011;57639;52.410;-1.966;2022-12-07T05:07:52;3.63;;;2.13;;
61590;SDS011;57639;52.410;-1.966;2022-12-07T05:10:58;5.10;;;2.20;;
61590;SDS011;57639;52.410;-1.966;2022-12-07T05:14:07;3.97;;;2.15;;
61590;SDS011;57639;52.410;-1.966;2022-12-07T05:17:15;4.75;;;2.20;;
61590;SDS011;57639;52.410;-1.966;2022-12-07T05:20:21;4.32;;;2.28;;
61590;SDS011;57639;52.410;-1.966;2022-12-07T05:23:30;3.80;;;2.03;;
61590;SDS011;57639;52.410;-1.966;2022-12-07T05:26:36;4.72;;;2.20;;
61590;SDS011;57639;52.410;-1.966;2022-12-07T05:29:42;4.22;;;1.98;;
61590;SDS011;57639;52.410;-1.966;2022-12-07T05:32:48;3.33;;;2.03;;
61590;SDS011;57639;52.410;-1.966;2022-12-07T05:35:54;3.53;;;2.10;;
61590;SDS011;57639;52.410;-1.966;2022-12-07T05:39:02;3.38;;;1.58;;
61590;SDS011;57639;52.410;-1.966;2022-12-07T05:42:10;4.57;;;2.43;;
61590;SDS011;57639;52.410;-1.966;2022-12-07T05:45:19;3.35;;;1.90;;
61590;SDS011;57639;52.410;-1.966;2022-12-07T05:48:25;5.03;;;1.92;;
61590;SDS011;57639;52.410;-1.966;2022-12-07T05:51:31;4.43;;;2.20;;
61590;SDS011;57639;52.410;-1.966;2022-12-07T05:54:40;2.88;;;1.80;;
61590;SDS011;57639;52.410;-1.966;2022-12-07T05:57:46;2.55;;;1.67;;
61590;SDS011;57639;52.410;-1.966;2022-12-07T06:01:04;3.67;;;1.90;;
61590;SDS011;57639;52.410;-1.966;2022-12-07T06:04:10;3.00;;;1.83;;
61590;SDS011;57639;52.410;-1.966;2022-12-07T06:07:16;3.55;;;1.88;;
61590;SDS011;57639;52.410;-1.966;2022-12-07T06:10:25;2.75;;;1.75;;
61590;SDS011;57639;52.410;-1.966;2022-12-07T06:13:31;2.78;;;1.83;;
61590;SDS011;57639;52.410;-1.966;2022-12-07T06:16:34;3.80;;;1.80;;
61590;SDS011;57639;52.410;-1.966;2022-12-07T06:19:40;3.13;;;1.80;;
61590;SDS011;57639;52.410;-1.966;2022-12-07T06:22:47;3.40;;;1.80;;
61590;SDS011;57639;52.410;-1.966;2022-12-07T06:25:55;2.47;;;1.50;;
61590;SDS011;57639;52.410;-1.966;2022-12-07T06:28:59;3.00;;;1.63;;
61590;SDS011;57639;52.410;-1.966;2022-12-07T06:32:05;2.45;;;1.63;;
61590;SDS011;57639;52.410;-1.966;2022-12-07T06:35:11;3.22;;;1.60;;
61590;SDS011;57639;52.410;-1.966;2022-12-07T06:38:15;3.50;;;1.90;;
61590;SDS011;57639;52.410;-1.966;2022-12-07T06:41:24;3.80;;;1.75;;
61590;SDS011;57639;52.410;-1.966;2022-12-07T06:44:28;2.88;;;1.50;;
61590;SDS011;57639;52.410;-1.966;2022-12-07T06:47:35;3.90;;;1.88;;
61590;SDS011;57639;52.410;-1.966;2022-12-07T06:50:39;3.22;;;1.70;;
61590;SDS011;57639;52.410;-1.966;2022-12-07T06:53:45;3.30;;;1.60;;
61590;SDS011;57639;52.410;-1.966;2022-12-07T06:56:51;2.55;;;1.50;;
61590;SDS011;57639;52.410;-1.966;2022-12-07T06:59:59;2.47;;;1.45;;
61590;SDS011;57639;52.410;-1.966;2022-12-07T07:03:05;3.10;;;1.60;;
61590;SDS011;57639;52.410;-1.966;2022-12-07T07:06:12;3.05;;;1.42;;
61590;SDS011;57639;52.410;-1.966;2022-12-07T07:09:16;3.03;;;1.52;;
61590;SDS011;57639;52.410;-1.966;2022-12-07T07:12:25;4.47;;;1.60;;
61590;SDS011;57639;52.410;-1.966;2022-12-07T07:15:31;2.97;;;1.48;;
61590;SDS011;57639;52.410;-1.966;2022-12-07T07:18:38;2.40;;;1.25;;
61590;SDS011;57639;52.410;-1.966;2022-12-07T07:21:44;2.90;;;1.38;;
61590;SDS011;57639;52.410;-1.966;2022-12-07T07:24:50;2.72;;;1.35;;
61590;SDS011;57639;52.410;-1.966;2022-12-07T07:27:59;2.75;;;1.40;;
61590;SDS011;57639;52.410;-1.966;2022-12-07T07:31:05;2.95;;;1.38;;
61590;SDS011;57639;52.410;-1.966;2022-12-07T07:34:11;2.83;;;1.25;;
61590;SDS011;57639;52.410;-1.966;2022-12-07T07:37:17;2.85;;;1.30;;
61590;SDS011;57639;52.410;-1.966;2022-12-07T07:40:24;2.67;;;1.33;;
61590;SDS011;57639;52.410;-1.966;2022-12-07T07:43:33;2.22;;;1.27;;
61590;SDS011;57639;52.410;-1.966;2022-12-07T07:46:39;2.53;;;1.13;;
61590;SDS011;57639;52.410;-1.966;2022-12-07T07:49:45;3.00;;;1.45;;
61590;SDS011;57639;52.410;-1.966;2022-12-07T07:52:51;4.00;;;1.50;;
61590;SDS011;57639;52.410;-1.966;2022-12-07T07:55:57;3.13;;;1.40;;
61590;SDS011;57639;52.410;-1.966;2022-12-07T07:59:06;2.90;;;1.63;;
61590;SDS011;57639;52.410;-1.966;2022-12-07T08:02:13;4.07;;;1.63;;
61590;SDS011;57639;52.410;-1.966;2022-12-07T08:05:20;2.33;;;1.27;;
61590;SDS011;57639;52.410;-1.966;2022-12-07T08:08:26;4.20;;;1.52;;
61590;SDS011;57639;52.410;-1.966;2022-12-07T08:11:32;3.78;;;1.42;;
61590;SDS011;57639;52.410;-1.966;2022-12-07T08:14:41;2.95;;;1.48;;
61590;SDS011;57639;52.410;-1.966;2022-12-07T08:17:47;3.17;;;1.75;;
61590;SDS011;57639;52.410;-1.966;2022-12-07T08:20:58;3.10;;;1.50;;
61590;SDS011;57639;52.410;-1.966;2022-12-07T08:24:03;3.15;;;1.60;;
61590;SDS011;57639;52.410;-1.966;2022-12-07T08:27:09;2.67;;;1.35;;
61590;SDS011;57639;52.410;-1.966;2022-12-07T08:30:18;4.10;;;1.88;;
61590;SDS011;57639;52.410;-1.966;2022-12-07T08:33:25;4.32;;;2.08;;
61590;SDS011;57639;52.410;-1.966;2022-12-07T08:36:31;3.45;;;2.25;;
61590;SDS011;57639;52.410;-1.966;2022-12-07T08:39:37;5.10;;;2.88;;
61590;SDS011;57639;52.410;-1.966;2022-12-07T08:42:43;6.72;;;2.92;;
61590;SDS011;57639;52.410;-1.966;2022-12-07T08:45:52;6.13;;;3.40;;
61590;SDS011;57639;52.410;-1.966;2022-12-07T08:49:06;7.32;;;3.97;;
61590;SDS011;57639;52.410;-1.966;2022-12-07T08:52:15;8.68;;;4.72;;
61590;SDS011;57639;52.410;-1.966;2022-12-07T08:55:21;8.77;;;4.95;;
61590;SDS011;57639;52.410;-1.966;2022-12-07T08:58:26;11.55;;;5.75;;
61590;SDS011;57639;52.410;-1.966;2022-12-07T09:01:35;12.63;;;6.20;;
61590;SDS011;57639;52.410;-1.966;2022-12-07T09:04:41;12.98;;;7.00;;
61590;SDS011;57639;52.410;-1.966;2022-12-07T09:07:47;14.18;;;6.50;;
61590;SDS011;57639;52.410;-1.966;2022-12-07T09:10:59;12.07;;;7.47;;
61590;SDS011;57639;52.410;-1.966;2022-12-07T09:14:05;12.27;;;7.40;;
61590;SDS011;57639;52.410;-1.966;2022-12-07T09:17:14;12.98;;;6.85;;
61590;SDS011;57639;52.410;-1.966;2022-12-07T09:20:20;13.95;;;8.00;;
61590;SDS011;57639;52.410;-1.966;2022-12-07T09:23:26;12.43;;;7.38;;
61590;SDS011;57639;52.410;-1.966;2022-12-07T09:26:32;12.77;;;7.82;;
61590;SDS011;57639;52.410;-1.966;2022-12-07T09:29:40;13.93;;;7.65;;
61590;SDS011;57639;52.410;-1.966;2022-12-07T09:32:48;16.10;;;7.85;;
61590;SDS011;57639;52.410;-1.966;2022-12-07T09:35:54;14.18;;;7.85;;
61590;SDS011;57639;52.410;-1.966;2022-12-07T09:39:01;15.25;;;8.65;;
61590;SDS011;57639;52.410;-1.966;2022-12-07T09:42:07;15.65;;;7.78;;
61590;SDS011;57639;52.410;-1.966;2022-12-07T09:45:17;14.98;;;8.38;;
61590;SDS011;57639;52.410;-1.966;2022-12-07T09:48:30;14.43;;;8.45;;
61590;SDS011;57639;52.410;-1.966;2022-12-07T09:51:38;13.88;;;8.02;;
61590;SDS011;57639;52.410;-1.966;2022-12-07T09:54:45;12.73;;;8.05;;
61590;SDS011;57639;52.410;-1.966;2022-12-07T09:57:53;16.30;;;8.60;;
61590;SDS011;57639;52.410;-1.966;2022-12-07T10:01:05;14.98;;;8.60;;
61590;SDS011;57639;52.410;-1.966;2022-12-07T10:04:17;11.70;;;7.38;;
61590;SDS011;57639;52.410;-1.966;2022-12-07T10:07:25;13.63;;;7.70;;
61590;SDS011;57639;52.410;-1.966;2022-12-07T10:10:31;12.27;;;7.50;;
61590;SDS011;57639;52.410;-1.966;2022-12-07T10:13:41;14.55;;;7.63;;
61590;SDS011;57639;52.410;-1.966;2022-12-07T10:23:25;11.23;;;6.80;;
61590;SDS011;57639;52.410;-1.966;2022-12-07T10:26:32;12.50;;;7.15;;
61590;SDS011;57639;52.410;-1.966;2022-12-07T10:29:39;11.73;;;6.97;;
61590;SDS011;57639;52.410;-1.966;2022-12-07T10:32:51;11.65;;;6.90;;
61590;SDS011;57639;52.410;-1.966;2022-12-07T10:36:01;10.23;;;6.15;;
61590;SDS011;57639;52.410;-1.966;2022-12-07T10:39:22;10.10;;;6.05;;
61590;SDS011;57639;52.410;-1.966;2022-12-07T10:42:29;10.80;;;6.07;;
61590;SDS011;57639;52.410;-1.966;2022-12-07T10:45:39;11.15;;;6.03;;
61590;SDS011;57639;52.410;-1.966;2022-12-07T10:49:08;11.15;;;6.18;;
61590;SDS011;57639;52.410;-1.966;2022-12-07T11:00:08;11.73;;;5.80;;
61590;SDS011;57639;52.410;-1.966;2022-12-07T11:03:23;13.00;;;5.70;;
61590;SDS011;57639;52.410;-1.966;2022-12-07T11:06:37;9.15;;;5.38;;
61590;SDS011;57639;52.410;-1.966;2022-12-07T11:09:55;7.90;;;5.20;;
61590;SDS011;57639;52.410;-1.966;2022-12-07T11:13:13;9.90;;;5.37;;
61590;SDS011;57639;52.410;-1.966;2022-12-07T11:16:29;10.55;;;5.50;;
61590;SDS011;57639;52.410;-1.966;2022-12-07T11:20:00;10.13;;;5.38;;
61590;SDS011;57639;52.410;-1.966;2022-12-07T11:23:13;7.70;;;5.07;;
61590;SDS011;57639;52.410;-1.966;2022-12-07T11:26:34;9.57;;;5.15;;
61590;SDS011;57639;52.410;-1.966;2022-12-07T11:29:55;8.02;;;4.47;;
61590;SDS011;57639;52.410;-1.966;2022-12-07T11:33:15;7.03;;;4.50;;
61590;SDS011;57639;52.410;-1.966;2022-12-07T11:36:34;8.52;;;4.75;;
61590;SDS011;57639;52.410;-1.966;2022-12-07T11:39:44;7.55;;;4.75;;
61590;SDS011;57639;52.410;-1.966;2022-12-07T11:42:59;7.55;;;4.40;;
61590;SDS011;57639;52.410;-1.966;2022-12-07T11:46:10;8.48;;;4.22;;
61590;SDS011;57639;52.410;-1.966;2022-12-07T11:49:21;9.18;;;4.28;;
61590;SDS011;57639;52.410;-1.966;2022-12-07T11:52:35;6.57;;;4.07;;
61590;SDS011;57639;52.410;-1.966;2022-12-07T11:55:49;7.50;;;4.20;;
61590;SDS011;57639;52.410;-1.966;2022-12-07T11:59:00;6.67;;;3.50;;
61590;SDS011;57639;52.410;-1.966;2022-12-07T12:02:13;7.68;;;3.60;;
61590;SDS011;57639;52.410;-1.966;2022-12-07T12:05:21;7.70;;;3.72;;
61590;SDS011;57639;52.410;-1.966;2022-12-07T12:08:29;6.43;;;3.78;;
61590;SDS011;57639;52.410;-1.966;2022-12-07T12:11:45;6.30;;;3.50;;
61590;SDS011;57639;52.410;-1.966;2022-12-07T12:15:20;5.18;;;3.30;;
61590;SDS011;57639;52.410;-1.966;2022-12-07T12:18:45;5.90;;;3.15;;
61590;SDS011;57639;52.410;-1.966;2022-12-07T12:22:00;4.28;;;2.90;;
61590;SDS011;57639;52.410;-1.966;2022-12-07T12:25:16;5.43;;;2.97;;
61590;SDS011;57639;52.410;-1.966;2022-12-07T12:28:28;5.82;;;3.30;;
61590;SDS011;57639;52.410;-1.966;2022-12-07T12:31:41;5.82;;;3.20;;
61590;SDS011;57639;52.410;-1.966;2022-12-07T12:35:01;5.67;;;2.80;;
61590;SDS011;57639;52.410;-1.966;2022-12-07T12:38:27;6.03;;;3.38;;
61590;SDS011;57639;52.410;-1.966;2022-12-07T12:41:52;7.95;;;3.15;;
61590;SDS011;57639;52.410;-1.966;2022-12-07T12:45:18;5.07;;;3.13;;
61590;SDS011;57639;52.410;-1.966;2022-12-07T12:48:30;5.13;;;3.08;;
61590;SDS011;57639;52.410;-1.966;2022-12-07T12:51:42;4.10;;;2.80;;
61590;SDS011;57639;52.410;-1.966;2022-12-07T12:54:57;5.28;;;3.03;;
61590;SDS011;57639;52.410;-1.966;2022-12-07T13:01:41;7.47;;;3.30;;
61590;SDS011;57639;52.410;-1.966;2022-12-07T13:04:53;6.57;;;3.47;;
61590;SDS011;57639;52.410;-1.966;2022-12-07T13:08:01;8.70;;;3.78;;
61590;SDS011;57639;52.410;-1.966;2022-12-07T13:11:17;8.23;;;3.90;;
61590;SDS011;57639;52.410;-1.966;2022-12-07T13:14:41;7.60;;;3.50;;
61590;SDS011;57639;52.410;-1.966;2022-12-07T13:18:01;9.55;;;3.70;;
61590;SDS011;57639;52.410;-1.966;2022-12-07T13:24:59;6.60;;;3.20;;
61590;SDS011;57639;52.410;-1.966;2022-12-07T13:28:13;7.22;;;3.70;;
61590;SDS011;57639;52.410;-1.966;2022-12-07T13:31:30;6.75;;;3.22;;
61590;SDS011;57639;52.410;-1.966;2022-12-07T13:34:39;5.70;;;3.05;;
61590;SDS011;57639;52.410;-1.966;2022-12-07T13:37:46;6.10;;;3.17;;
61590;SDS011;57639;52.410;-1.966;2022-12-07T13:41:02;6.57;;;3.00;;
61590;SDS011;57639;52.410;-1.966;2022-12-07T13:44:11;6.45;;;3.05;;
61590;SDS011;57639;52.410;-1.966;2022-12-07T13:47:19;6.50;;;2.83;;
61590;SDS011;57639;52.410;-1.966;2022-12-07T13:50:31;6.60;;;3.10;;
61590;SDS011;57639;52.410;-1.966;2022-12-07T13:53:45;4.93;;;2.83;;
61590;SDS011;57639;52.410;-1.966;2022-12-07T13:56:55;5.63;;;2.75;;
61590;SDS011;57639;52.410;-1.966;2022-12-07T14:00:01;8.88;;;3.08;;
61590;SDS011;57639;52.410;-1.966;2022-12-07T14:03:30;5.80;;;2.83;;
61590;SDS011;57639;52.410;-1.966;2022-12-07T14:06:46;8.88;;;3.08;;
61590;SDS011;57639;52.410;-1.966;2022-12-07T14:09:55;4.88;;;2.65;;
61590;SDS011;57639;52.410;-1.966;2022-12-07T14:13:21;4.57;;;2.80;;
61590;SDS011;57639;52.410;-1.966;2022-12-07T14:16:32;5.63;;;2.80;;
61590;SDS011;57639;52.410;-1.966;2022-12-07T14:19:46;8.00;;;2.85;;
61590;SDS011;57639;52.410;-1.966;2022-12-07T14:22:54;5.13;;;2.55;;
61590;SDS011;57639;52.410;-1.966;2022-12-07T14:26:05;4.68;;;2.40;;
61590;SDS011;57639;52.410;-1.966;2022-12-07T14:29:22;6.18;;;2.78;;
61590;SDS011;57639;52.410;-1.966;2022-12-07T14:32:35;5.03;;;2.85;;
61590;SDS011;57639;52.410;-1.966;2022-12-07T14:35:43;6.20;;;2.85;;
61590;SDS011;57639;52.410;-1.966;2022-12-07T14:38:49;7.00;;;2.90;;
61590;SDS011;57639;52.410;-1.966;2022-12-07T14:41:58;8.80;;;3.07;;
61590;SDS011;57639;52.410;-1.966;2022-12-07T14:45:10;5.75;;;2.30;;
61590;SDS011;57639;52.410;-1.966;2022-12-07T14:48:19;6.95;;;2.70;;
61590;SDS011;57639;52.410;-1.966;2022-12-07T14:51:25;5.43;;;2.72;;
61590;SDS011;57639;52.410;-1.966;2022-12-07T14:54:31;4.90;;;2.53;;
61590;SDS011;57639;52.410;-1.966;2022-12-07T14:57:38;6.22;;;2.28;;
61590;SDS011;57639;52.410;-1.966;2022-12-07T15:00:47;5.03;;;2.50;;
61590;SDS011;57639;52.410;-1.966;2022-12-07T15:03:53;4.60;;;2.80;;
61590;SDS011;57639;52.410;-1.966;2022-12-07T15:06:59;5.30;;;2.20;;
61590;SDS011;57639;52.410;-1.966;2022-12-07T15:10:11;7.22;;;2.40;;
61590;SDS011;57639;52.410;-1.966;2022-12-07T15:13:21;3.72;;;2.08;;
61590;SDS011;57639;52.410;-1.966;2022-12-07T15:16:45;4.53;;;2.08;;
61590;SDS011;57639;52.410;-1.966;2022-12-07T15:19:51;5.93;;;2.10;;
61590;SDS011;57639;52.410;-1.966;2022-12-07T15:22:59;5.45;;;2.20;;
61590;SDS011;57639;52.410;-1.966;2022-12-07T15:26:05;4.82;;;2.00;;
61590;SDS011;57639;52.410;-1.966;2022-12-07T15:29:11;4.28;;;1.90;;
61590;SDS011;57639;52.410;-1.966;2022-12-07T15:32:22;5.50;;;2.08;;
61590;SDS011;57639;52.410;-1.966;2022-12-07T15:35:28;3.67;;;2.00;;
61590;SDS011;57639;52.410;-1.966;2022-12-07T15:38:35;3.92;;;1.75;;
61590;SDS011;57639;52.410;-1.966;2022-12-07T15:41:41;3.55;;;1.88;;
61590;SDS011;57639;52.410;-1.966;2022-12-07T15:44:47;4.60;;;2.08;;
61590;SDS011;57639;52.410;-1.966;2022-12-07T15:48:14;4.55;;;1.77;;
61590;SDS011;57639;52.410;-1.966;2022-12-07T15:51:20;4.30;;;1.90;;
61590;SDS011;57639;52.410;-1.966;2022-12-07T15:54:26;4.50;;;2.00;;
61590;SDS011;57639;52.410;-1.966;2022-12-07T15:57:34;2.97;;;1.70;;
61590;SDS011;57639;52.410;-1.966;2022-12-07T16:00:42;3.75;;;1.85;;
61590;SDS011;57639;52.410;-1.966;2022-12-07T16:03:51;3.05;;;1.60;;
61590;SDS011;57639;52.410;-1.966;2022-12-07T16:07:00;3.85;;;1.77;;
61590;SDS011;57639;52.410;-1.966;2022-12-07T16:10:06;3.85;;;1.80;;
61590;SDS011;57639;52.410;-1.966;2022-12-07T16:13:13;4.18;;;1.70;;
61590;SDS011;57639;52.410;-1.966;2022-12-07T16:16:20;3.63;;;1.70;;
61590;SDS011;57639;52.410;-1.966;2022-12-07T16:19:29;3.17;;;1.40;;
61590;SDS011;57639;52.410;-1.966;2022-12-07T16:22:36;3.45;;;1.70;;
61590;SDS011;57639;52.410;-1.966;2022-12-07T16:25:41;3.75;;;1.75;;
61590;SDS011;57639;52.410;-1.966;2022-12-07T16:28:48;3.35;;;1.63;;
61590;SDS011;57639;52.410;-1.966;2022-12-07T16:31:54;3.28;;;1.70;;
61590;SDS011;57639;52.410;-1.966;2022-12-07T16:35:03;4.15;;;1.60;;
61590;SDS011;57639;52.410;-1.966;2022-12-07T16:38:10;3.20;;;1.70;;
61590;SDS011;57639;52.410;-1.966;2022-12-07T16:41:16;2.63;;;1.52;;
61590;SDS011;57639;52.410;-1.966;2022-12-07T16:44:21;2.30;;;1.50;;
61590;SDS011;57639;52.410;-1.966;2022-12-07T16:47:27;3.00;;;1.90;;
61590;SDS011;57639;52.410;-1.966;2022-12-07T16:50:36;4.03;;;1.77;;
61590;SDS011;57639;52.410;-1.966;2022-12-07T16:53:45;2.58;;;1.60;;
61590;SDS011;57639;52.410;-1.966;2022-12-07T16:56:53;3.60;;;1.73;;
61590;SDS011;57639;52.410;-1.966;2022-12-07T16:59:59;4.93;;;1.80;;
61590;SDS011;57639;52.410;-1.966;2022-12-07T17:03:06;4.45;;;2.00;;
61590;SDS011;57639;52.410;-1.966;2022-12-07T17:06:16;3.75;;;1.70;;
61590;SDS011;57639;52.410;-1.966;2022-12-07T17:09:23;5.78;;;2.08;;
61590;SDS011;57639;52.410;-1.966;2022-12-07T17:12:29;4.15;;;1.63;;
61590;SDS011;57639;52.410;-1.966;2022-12-07T17:15:35;4.35;;;1.95;;
61590;SDS011;57639;52.410;-1.966;2022-12-07T17:18:38;3.75;;;1.83;;
61590;SDS011;57639;52.410;-1.966;2022-12-07T17:21:47;6.18;;;1.88;;
61590;SDS011;57639;52.410;-1.966;2022-12-07T17:24:53;4.03;;;2.00;;
61590;SDS011;57639;52.410;-1.966;2022-12-07T17:27:59;5.60;;;1.80;;
61590;SDS011;57639;52.410;-1.966;2022-12-07T17:31:06;3.05;;;1.50;;
61590;SDS011;57639;52.410;-1.966;2022-12-07T17:34:13;5.20;;;1.90;;
61590;SDS011;57639;52.410;-1.966;2022-12-07T17:37:22;2.92;;;1.80;;
61590;SDS011;57639;52.410;-1.966;2022-12-07T17:40:28;3.55;;;1.60;;
61590;SDS011;57639;52.410;-1.966;2022-12-07T17:43:34;3.90;;;1.75;;
61590;SDS011;57639;52.410;-1.966;2022-12-07T17:46:40;4.32;;;1.77;;
61590;SDS011;57639;52.410;-1.966;2022-12-07T17:49:46;5.75;;;1.90;;
61590;SDS011;57639;52.410;-1.966;2022-12-07T17:52:55;3.38;;;1.73;;
61590;SDS011;57639;52.410;-1.966;2022-12-07T17:56:13;3.55;;;1.92;;
61590;SDS011;57639;52.410;-1.966;2022-12-07T17:59:19;4.15;;;1.88;;
61590;SDS011;57639;52.410;-1.966;2022-12-07T18:02:25;6.60;;;2.00;;
61590;SDS011;57639;52.410;-1.966;2022-12-07T18:05:32;4.00;;;2.15;;
61590;SDS011;57639;52.410;-1.966;2022-12-07T18:08:40;5.50;;;1.92;;
61590;SDS011;57639;52.410;-1.966;2022-12-07T18:11:46;6.03;;;2.15;;
61590;SDS011;57639;52.410;-1.966;2022-12-07T18:14:52;3.13;;;2.45;;
61590;SDS011;57639;52.410;-1.966;2022-12-07T18:17:58;5.18;;;2.28;;
61590;SDS011;57639;52.410;-1.966;2022-12-07T18:21:06;7.63;;;2.25;;
61590;SDS011;57639;52.410;-1.966;2022-12-07T18:24:18;3.42;;;2.30;;
61590;SDS011;57639;52.410;-1.966;2022-12-07T18:27:24;4.45;;;2.47;;
61590;SDS011;57639;52.410;-1.966;2022-12-07T18:30:31;4.15;;;2.40;;
61590;SDS011;57639;52.410;-1.966;2022-12-07T18:33:37;5.97;;;2.30;;
61590;SDS011;57639;52.410;-1.966;2022-12-07T18:36:45;5.95;;;2.25;;
61590;SDS011;57639;52.410;-1.966;2022-12-07T18:39:55;4.07;;;2.38;;
61590;SDS011;57639;52.410;-1.966;2022-12-07T18:43:01;4.28;;;2.15;;
61590;SDS011;57639;52.410;-1.966;2022-12-07T18:46:11;4.32;;;2.13;;
61590;SDS011;57639;52.410;-1.966;2022-12-07T18:49:18;3.95;;;2.13;;
61590;SDS011;57639;52.410;-1.966;2022-12-07T18:52:24;5.05;;;2.30;;
61590;SDS011;57639;52.410;-1.966;2022-12-07T18:55:33;3.60;;;2.17;;
61590;SDS011;57639;52.410;-1.966;2022-12-07T18:58:39;4.93;;;2.25;;
61590;SDS011;57639;52.410;-1.966;2022-12-07T19:02:05;4.07;;;2.10;;